sensor_id;sensor_type;location;lat;lon;timestamp;pressure;altitude;pressure_sealevel;temperature;humidity
44198;BME280;30157;55.512;37.764;2023-03-04T00:00:28;98353.75;;;-4.62;88.03
44198;BME280;30157;55.512;37.764;2023-03-04T00:02:54;98363.25;;;-4.55;87.84
44198;BME280;30157;55.512;37.764;2023-03-04T00:05:20;98362.69;;;-4.46;88.01
44198;BME280;30157;55.512;37.764;2023-03-04T00:07:45;98296.66;;;-4.80;87.22
44198;BME280;30157;55.512;37.764;2023-03-04T00:10:11;98351.97;;;-4.38;87.56
44198;BME280;30157;55.512;37.764;2023-03-04T00:12:38;98356.44;;;-4.30;87.28
44198;BME280;30157;55.512;37.764;2023-03-04T00:15:04;98231.69;;;-5.07;86.78
44198;BME280;30157;55.512;37.764;2023-03-04T00:17:30;98341.03;;;-4.36;87.08
44198;BME280;30157;55.512;37.764;2023-03-04T00:19:56;98317.78;;;-4.52;86.86
44198;BME280;30157;55.512;37.764;2023-03-04T00:22:22;98334.06;;;-4.44;87.61
44198;BME280;30157;55.512;37.764;2023-03-04T00:24:50;98269.44;;;-4.87;88.12
44198;BME280;30157;55.512;37.764;2023-03-04T00:27:16;98343.44;;;-4.41;89.28
44198;BME280;30157;55.512;37.764;2023-03-04T00:29:41;98323.84;;;-4.47;89.31
44198;BME280;30157;55.512;37.764;2023-03-04T00:32:07;98326.06;;;-4.29;89.31
44198;BME280;30157;55.512;37.764;2023-03-04T00:34:33;98268.53;;;-4.62;89.54
44198;BME280;30157;55.512;37.764;2023-03-04T00:36:58;98312.72;;;-4.23;89.72
44198;BME280;30157;55.512;37.764;2023-03-04T00:39:28;98318.59;;;-4.24;89.56
44198;BME280;30157;55.512;37.764;2023-03-04T00:41:54;98332.19;;;-4.22;89.82
44198;BME280;30157;55.512;37.764;2023-03-04T00:44:20;98317.72;;;-4.26;90.22
44198;BME280;30157;55.512;37.764;2023-03-04T00:46:46;98299.94;;;-4.28;90.11
44198;BME280;30157;55.512;37.764;2023-03-04T00:49:13;98255.78;;;-4.63;90.55
44198;BME280;30157;55.512;37.764;2023-03-04T00:51:38;98335.03;;;-4.11;90.17
44198;BME280;30157;55.512;37.764;2023-03-04T00:54:04;98191.00;;;-4.85;90.01
44198;BME280;30157;55.512;37.764;2023-03-04T00:56:29;98205.72;;;-4.74;89.71
44198;BME280;30157;55.512;37.764;2023-03-04T00:58:55;98271.78;;;-4.37;90.09
44198;BME280;30157;55.512;37.764;2023-03-04T01:01:21;98315.56;;;-4.12;90.54
44198;BME280;30157;55.512;37.764;2023-03-04T01:03:47;98205.59;;;-4.77;91.05
44198;BME280;30157;55.512;37.764;2023-03-04T01:06:12;98313.69;;;-4.19;91.70
44198;BME280;30157;55.512;37.764;2023-03-04T01:08:39;98317.03;;;-4.20;93.02
44198;BME280;30157;55.512;37.764;2023-03-04T01:11:05;98310.47;;;-4.14;92.69
44198;BME280;30157;55.512;37.764;2023-03-04T01:13:31;98295.66;;;-4.29;93.93
44198;BME280;30157;55.512;37.764;2023-03-04T01:15:57;98283.56;;;-4.38;94.24
44198;BME280;30157;55.512;37.764;2023-03-04T01:18:24;98316.97;;;-4.22;94.97
44198;BME280;30157;55.512;37.764;2023-03-04T01:20:50;98318.84;;;-4.16;94.58
44198;BME280;30157;55.512;37.764;2023-03-04T01:23:16;98314.03;;;-4.07;94.14
44198;BME280;30157;55.512;37.764;2023-03-04T01:25:42;98221.63;;;-4.49;93.71
44198;BME280;30157;55.512;37.764;2023-03-04T01:28:07;98299.22;;;-3.93;93.39
44198;BME280;30157;55.512;37.764;2023-03-04T01:30:33;98299.41;;;-3.87;93.36
44198;BME280;30157;55.512;37.764;2023-03-04T01:32:59;98280.63;;;-3.94;93.25
44198;BME280;30157;55.512;37.764;2023-03-04T01:35:24;98304.00;;;-3.74;92.62
44198;BME280;30157;55.512;37.764;2023-03-04T01:37:50;98299.06;;;-3.69;92.10
44198;BME280;30157;55.512;37.764;2023-03-04T01:40:16;98179.03;;;-4.33;92.12
44198;BME280;30157;55.512;37.764;2023-03-04T01:42:42;98266.81;;;-3.73;91.63
44198;BME280;30157;55.512;37.764;2023-03-04T01:45:15;98278.25;;;-3.57;91.44
44198;BME280;30157;55.512;37.764;2023-03-04T01:47:43;98259.44;;;-3.65;91.04
44198;BME280;30157;55.512;37.764;2023-03-04T01:50:19;98283.69;;;-3.43;90.90
44198;BME280;30157;55.512;37.764;2023-03-04T01:52:45;98278.56;;;-3.45;90.33
44198;BME280;30157;55.512;37.764;2023-03-04T01:55:16;98279.50;;;-3.41;90.65
44198;BME280;30157;55.512;37.764;2023-03-04T01:57:43;98199.69;;;-3.88;90.32
44198;BME280;30157;55.512;37.764;2023-03-04T02:00:29;98135.50;;;-4.18;90.13
44198;BME280;30157;55.512;37.764;2023-03-04T02:03:18;98261.75;;;-3.41;90.02
44198;BME280;30157;55.512;37.764;2023-03-04T02:05:47;98261.75;;;-3.41;90.02
44198;BME280;30157;55.512;37.764;2023-03-04T02:08:14;98252.41;;;-3.42;90.16
44198;BME280;30157;55.512;37.764;2023-03-04T02:10:41;98261.00;;;-3.37;90.15
44198;BME280;30157;55.512;37.764;2023-03-04T02:13:27;98222.41;;;-3.59;90.52
44198;BME280;30157;55.512;37.764;2023-03-04T02:15:54;98251.81;;;-3.33;90.49
44198;BME280;30157;55.512;37.764;2023-03-04T02:18:22;98217.56;;;-3.49;90.62
44198;BME280;30157;55.512;37.764;2023-03-04T02:21:04;98154.19;;;-3.81;90.20
44198;BME280;30157;55.512;37.764;2023-03-04T02:24:17;98234.03;;;-3.33;90.30
44198;BME280;30157;55.512;37.764;2023-03-04T02:26:41;98218.44;;;-3.47;90.15
44198;BME280;30157;55.512;37.764;2023-03-04T02:29:12;98216.81;;;-3.45;90.79
44198;BME280;30157;55.512;37.764;2023-03-04T02:34:13;98173.19;;;-3.65;90.86
44198;BME280;30157;55.512;37.764;2023-03-04T02:36:41;98109.03;;;-3.96;90.81
44198;BME280;30157;55.512;37.764;2023-03-04T02:41:54;98216.34;;;-3.30;90.76
44198;BME280;30157;55.512;37.764;2023-03-04T02:44:27;98178.47;;;-3.58;90.80
44198;BME280;30157;55.512;37.764;2023-03-04T02:46:54;98199.88;;;-3.46;91.31
44198;BME280;30157;55.512;37.764;2023-03-04T02:49:21;98198.22;;;-3.46;91.35
44198;BME280;30157;55.512;37.764;2023-03-04T02:51:51;98071.19;;;-4.24;92.06
44198;BME280;30157;55.512;37.764;2023-03-04T02:54:20;98163.72;;;-3.73;92.58
44198;BME280;30157;55.512;37.764;2023-03-04T02:56:57;98189.34;;;-3.63;92.99
44198;BME280;30157;55.512;37.764;2023-03-04T02:59:24;98121.31;;;-4.12;93.73
44198;BME280;30157;55.512;37.764;2023-03-04T03:01:51;98079.31;;;-4.35;93.62
44198;BME280;30157;55.512;37.764;2023-03-04T03:04:17;98173.88;;;-3.73;94.03
44198;BME280;30157;55.512;37.764;2023-03-04T03:06:44;98183.09;;;-3.75;94.38
44198;BME280;30157;55.512;37.764;2023-03-04T03:09:10;98167.88;;;-3.75;95.17
44198;BME280;30157;55.512;37.764;2023-03-04T03:11:36;98165.50;;;-3.70;95.23
44198;BME280;30157;55.512;37.764;2023-03-04T03:14:02;98151.16;;;-3.68;95.33
44198;BME280;30157;55.512;37.764;2023-03-04T03:16:28;98053.47;;;-4.22;94.81
44198;BME280;30157;55.512;37.764;2023-03-04T03:18:54;98157.25;;;-3.61;95.97
44198;BME280;30157;55.512;37.764;2023-03-04T03:21:21;98148.88;;;-3.57;94.82
44198;BME280;30157;55.512;37.764;2023-03-04T03:23:46;98153.72;;;-3.66;95.87
44198;BME280;30157;55.512;37.764;2023-03-04T03:26:13;98084.22;;;-4.08;96.21
44198;BME280;30157;55.512;37.764;2023-03-04T03:28:38;98154.50;;;-3.69;96.82
44198;BME280;30157;55.512;37.764;2023-03-04T03:31:04;98128.09;;;-3.77;97.62
44198;BME280;30157;55.512;37.764;2023-03-04T03:33:30;98138.59;;;-3.63;97.32
44198;BME280;30157;55.512;37.764;2023-03-04T03:35:56;98119.69;;;-3.76;97.48
44198;BME280;30157;55.512;37.764;2023-03-04T03:38:21;98106.19;;;-3.75;97.38
44198;BME280;30157;55.512;37.764;2023-03-04T03:40:47;98023.91;;;-4.22;96.98
44198;BME280;30157;55.512;37.764;2023-03-04T03:43:13;98020.47;;;-4.25;96.87
44198;BME280;30157;55.512;37.764;2023-03-04T03:45:38;98134.53;;;-3.57;97.19
44198;BME280;30157;55.512;37.764;2023-03-04T03:48:04;98133.84;;;-3.51;96.76
44198;BME280;30157;55.512;37.764;2023-03-04T03:50:30;98075.63;;;-3.80;96.27
44198;BME280;30157;55.512;37.764;2023-03-04T03:52:56;98114.50;;;-3.46;96.62
44198;BME280;30157;55.512;37.764;2023-03-04T03:55:21;98108.50;;;-3.49;96.36
44198;BME280;30157;55.512;37.764;2023-03-04T03:57:47;97975.75;;;-4.23;96.13
44198;BME280;30157;55.512;37.764;2023-03-04T04:00:13;98103.53;;;-3.45;96.26
44198;BME280;30157;55.512;37.764;2023-03-04T04:02:40;98099.06;;;-3.55;95.88
44198;BME280;30157;55.512;37.764;2023-03-04T04:05:07;98095.53;;;-3.62;96.12
44198;BME280;30157;55.512;37.764;2023-03-04T04:07:34;97984.28;;;-4.19;96.16
44198;BME280;30157;55.512;37.764;2023-03-04T04:09:59;98053.75;;;-3.76;95.72
44198;BME280;30157;55.512;37.764;2023-03-04T04:12:25;97886.53;;;-4.81;95.56
44198;BME280;30157;55.512;37.764;2023-03-04T04:14:51;98041.91;;;-3.77;95.78
44198;BME280;30157;55.512;37.764;2023-03-04T04:17:17;98074.78;;;-3.45;95.49
44198;BME280;30157;55.512;37.764;2023-03-04T04:19:42;98084.13;;;-3.43;95.84
44198;BME280;30157;55.512;37.764;2023-03-04T04:22:14;98071.44;;;-3.43;95.81
44198;BME280;30157;55.512;37.764;2023-03-04T04:24:40;97973.63;;;-4.06;95.42
44198;BME280;30157;55.512;37.764;2023-03-04T04:27:06;97963.69;;;-3.98;95.34
44198;BME280;30157;55.512;37.764;2023-03-04T04:29:31;97919.78;;;-4.32;95.27
44198;BME280;30157;55.512;37.764;2023-03-04T04:31:57;97973.84;;;-3.97;95.08
44198;BME280;30157;55.512;37.764;2023-03-04T04:34:24;98076.50;;;-3.44;95.36
44198;BME280;30157;55.512;37.764;2023-03-04T04:36:52;97952.19;;;-4.19;95.33
44198;BME280;30157;55.512;37.764;2023-03-04T04:39:18;98057.56;;;-3.59;95.16
44198;BME280;30157;55.512;37.764;2023-03-04T04:41:45;98053.31;;;-3.58;94.99
44198;BME280;30157;55.512;37.764;2023-03-04T04:44:11;98067.19;;;-3.44;94.89
44198;BME280;30157;55.512;37.764;2023-03-04T04:46:38;98071.50;;;-3.40;94.50
44198;BME280;30157;55.512;37.764;2023-03-04T04:49:05;98038.78;;;-3.65;94.08
44198;BME280;30157;55.512;37.764;2023-03-04T04:51:31;98033.66;;;-3.68;93.57
44198;BME280;30157;55.512;37.764;2023-03-04T04:53:59;98069.78;;;-3.41;93.17
44198;BME280;30157;55.512;37.764;2023-03-04T04:56:25;97974.75;;;-3.93;92.81
44198;BME280;30157;55.512;37.764;2023-03-04T04:58:57;98060.75;;;-3.29;92.75
44198;BME280;30157;55.512;37.764;2023-03-04T05:01:23;97950.25;;;-3.94;92.23
44198;BME280;30157;55.512;37.764;2023-03-04T05:03:50;98050.44;;;-3.35;92.26
44198;BME280;30157;55.512;37.764;2023-03-04T05:06:18;98009.28;;;-3.63;92.22
44198;BME280;30157;55.512;37.764;2023-03-04T05:08:49;98035.91;;;-3.44;92.15
44198;BME280;30157;55.512;37.764;2023-03-04T05:11:15;98072.16;;;-3.10;92.12
44198;BME280;30157;55.512;37.764;2023-03-04T05:13:41;98037.34;;;-3.16;91.76
44198;BME280;30157;55.512;37.764;2023-03-04T05:16:09;98034.06;;;-3.12;90.91
44198;BME280;30157;55.512;37.764;2023-03-04T05:18:35;97892.97;;;-3.88;89.91
44198;BME280;30157;55.512;37.764;2023-03-04T05:21:02;97950.66;;;-3.36;90.53
44198;BME280;30157;55.512;37.764;2023-03-04T05:23:30;98046.00;;;-2.65;89.97
44198;BME280;30157;55.512;37.764;2023-03-04T05:25:55;98047.97;;;-2.50;89.75
44198;BME280;30157;55.512;37.764;2023-03-04T05:28:21;98021.50;;;-2.61;89.13
44198;BME280;30157;55.512;37.764;2023-03-04T05:30:47;97952.94;;;-3.06;88.11
44198;BME280;30157;55.512;37.764;2023-03-04T05:33:15;98030.16;;;-2.51;88.79
44198;BME280;30157;55.512;37.764;2023-03-04T05:35:45;98036.28;;;-2.42;88.71
44198;BME280;30157;55.512;37.764;2023-03-04T05:38:15;98058.66;;;-2.22;88.24
44198;BME280;30157;55.512;37.764;2023-03-04T05:40:42;97968.13;;;-2.64;88.49
44198;BME280;30157;55.512;37.764;2023-03-04T05:43:08;98049.50;;;-2.14;87.81
44198;BME280;30157;55.512;37.764;2023-03-04T05:45:34;97983.66;;;-2.47;87.33
44198;BME280;30157;55.512;37.764;2023-03-04T05:48:00;97934.94;;;-2.72;87.01
44198;BME280;30157;55.512;37.764;2023-03-04T05:50:27;97952.25;;;-2.53;86.84
44198;BME280;30157;55.512;37.764;2023-03-04T05:52:53;98038.56;;;-2.08;86.73
44198;BME280;30157;55.512;37.764;2023-03-04T05:55:19;98039.22;;;-2.18;86.89
44198;BME280;30157;55.512;37.764;2023-03-04T05:57:45;98008.91;;;-2.57;87.62
44198;BME280;30157;55.512;37.764;2023-03-04T06:00:16;98015.88;;;-2.46;87.68
44198;BME280;30157;55.512;37.764;2023-03-04T06:02:42;98028.66;;;-2.42;87.52
44198;BME280;30157;55.512;37.764;2023-03-04T06:05:10;98027.16;;;-2.30;86.98
44198;BME280;30157;55.512;37.764;2023-03-04T06:07:36;98034.38;;;-2.05;86.52
44198;BME280;30157;55.512;37.764;2023-03-04T06:10:02;98016.63;;;-2.03;85.46
44198;BME280;30157;55.512;37.764;2023-03-04T06:12:29;98015.03;;;-1.96;84.62
44198;BME280;30157;55.512;37.764;2023-03-04T06:14:55;98028.22;;;-1.65;84.71
44198;BME280;30157;55.512;37.764;2023-03-04T06:17:21;98012.19;;;-1.61;83.23
44198;BME280;30157;55.512;37.764;2023-03-04T06:19:47;97950.03;;;-1.79;82.76
44198;BME280;30157;55.512;37.764;2023-03-04T06:22:12;97936.69;;;-1.62;82.48
44198;BME280;30157;55.512;37.764;2023-03-04T06:24:38;98008.53;;;-1.17;81.59
44198;BME280;30157;55.512;37.764;2023-03-04T06:27:06;97910.78;;;-1.96;81.44
44198;BME280;30157;55.512;37.764;2023-03-04T06:29:32;98011.75;;;-1.29;82.03
44198;BME280;30157;55.512;37.764;2023-03-04T06:31:58;98016.78;;;-1.36;81.60
44198;BME280;30157;55.512;37.764;2023-03-04T06:34:24;97912.63;;;-1.84;81.95
44198;BME280;30157;55.512;37.764;2023-03-04T06:36:49;97954.75;;;-1.42;81.70
44198;BME280;30157;55.512;37.764;2023-03-04T06:39:15;97908.66;;;-0.93;80.87
44198;BME280;30157;55.512;37.764;2023-03-04T06:41:41;97965.31;;;1.04;77.49
44198;BME280;30157;55.512;37.764;2023-03-04T06:44:07;97953.47;;;1.31;73.88
44198;BME280;30157;55.512;37.764;2023-03-04T06:46:35;97980.78;;;1.44;74.46
44198;BME280;30157;55.512;37.764;2023-03-04T06:49:00;97893.66;;;0.65;74.50
44198;BME280;30157;55.512;37.764;2023-03-04T06:51:27;97963.59;;;1.03;74.56
44198;BME280;30157;55.512;37.764;2023-03-04T06:53:53;97999.38;;;1.00;74.12
44198;BME280;30157;55.512;37.764;2023-03-04T06:56:18;97980.34;;;0.44;74.10
44198;BME280;30157;55.512;37.764;2023-03-04T06:58:44;97918.81;;;0.02;74.92
44198;BME280;30157;55.512;37.764;2023-03-04T07:01:17;97982.00;;;0.34;74.59
44198;BME280;30157;55.512;37.764;2023-03-04T07:03:44;97967.56;;;0.39;74.82
44198;BME280;30157;55.512;37.764;2023-03-04T07:06:11;97947.16;;;0.42;74.59
44198;BME280;30157;55.512;37.764;2023-03-04T07:08:37;97871.88;;;-0.23;73.25
44198;BME280;30157;55.512;37.764;2023-03-04T07:11:03;97886.56;;;0.12;72.96
44198;BME280;30157;55.512;37.764;2023-03-04T07:13:28;97924.31;;;0.70;72.12
44198;BME280;30157;55.512;37.764;2023-03-04T07:15:54;97948.16;;;0.74;70.45
44198;BME280;30157;55.512;37.764;2023-03-04T07:18:20;97944.03;;;1.10;71.48
44198;BME280;30157;55.512;37.764;2023-03-04T07:20:45;97884.38;;;0.95;70.71
44198;BME280;30157;55.512;37.764;2023-03-04T07:23:11;97952.63;;;1.41;70.73
44198;BME280;30157;55.512;37.764;2023-03-04T07:25:37;97840.00;;;0.56;70.49
44198;BME280;30157;55.512;37.764;2023-03-04T07:28:06;97932.16;;;1.27;70.64
44198;BME280;30157;55.512;37.764;2023-03-04T07:30:31;97856.25;;;0.80;69.82
44198;BME280;30157;55.512;37.764;2023-03-04T07:32:57;97929.53;;;0.98;69.11
44198;BME280;30157;55.512;37.764;2023-03-04T07:35:23;97926.25;;;1.47;69.65
44198;BME280;30157;55.512;37.764;2023-03-04T07:37:49;97917.72;;;1.59;68.35
44198;BME280;30157;55.512;37.764;2023-03-04T07:40:14;97916.03;;;1.47;67.47
44198;BME280;30157;55.512;37.764;2023-03-04T07:42:40;97921.06;;;1.24;68.61
44198;BME280;30157;55.512;37.764;2023-03-04T07:45:10;97913.44;;;1.38;68.39
44198;BME280;30157;55.512;37.764;2023-03-04T07:47:37;97831.38;;;0.29;69.34
44198;BME280;30157;55.512;37.764;2023-03-04T07:50:03;97855.00;;;-0.06;70.68
44198;BME280;30157;55.512;37.764;2023-03-04T07:52:29;97904.22;;;-0.21;71.95
44198;BME280;30157;55.512;37.764;2023-03-04T07:54:54;97910.88;;;-0.37;73.36
44198;BME280;30157;55.512;37.764;2023-03-04T07:57:20;97911.69;;;-0.39;74.52
44198;BME280;30157;55.512;37.764;2023-03-04T07:59:45;97886.91;;;-0.60;77.49
44198;BME280;30157;55.512;37.764;2023-03-04T08:02:11;97895.63;;;-0.30;76.37
44198;BME280;30157;55.512;37.764;2023-03-04T08:04:37;97794.13;;;-0.84;75.85
44198;BME280;30157;55.512;37.764;2023-03-04T08:07:03;97896.63;;;-0.08;75.74
44198;BME280;30157;55.512;37.764;2023-03-04T08:09:28;97877.88;;;-0.18;74.90
44198;BME280;30157;55.512;37.764;2023-03-04T08:11:55;97887.31;;;-0.09;75.19
44198;BME280;30157;55.512;37.764;2023-03-04T08:14:21;97884.91;;;0.15;74.53
44198;BME280;30157;55.512;37.764;2023-03-04T08:16:47;97877.25;;;0.20;74.12
44198;BME280;30157;55.512;37.764;2023-03-04T08:19:12;97862.88;;;0.33;74.05
44198;BME280;30157;55.512;37.764;2023-03-04T08:21:38;97883.44;;;0.67;73.48
44198;BME280;30157;55.512;37.764;2023-03-04T08:24:04;97859.63;;;0.68;72.15
44198;BME280;30157;55.512;37.764;2023-03-04T08:26:37;97851.16;;;0.95;71.70
44198;BME280;30157;55.512;37.764;2023-03-04T08:29:05;97856.22;;;0.75;70.88
44198;BME280;30157;55.512;37.764;2023-03-04T08:31:31;97821.16;;;0.23;72.01
44198;BME280;30157;55.512;37.764;2023-03-04T08:33:57;97869.00;;;0.68;71.99
44198;BME280;30157;55.512;37.764;2023-03-04T08:36:23;97863.00;;;0.64;71.97
44198;BME280;30157;55.512;37.764;2023-03-04T08:38:49;97863.84;;;0.64;71.53
44198;BME280;30157;55.512;37.764;2023-03-04T08:41:15;97782.69;;;-0.15;72.01
44198;BME280;30157;55.512;37.764;2023-03-04T08:43:42;97843.97;;;-0.03;72.74
44198;BME280;30157;55.512;37.764;2023-03-04T08:46:08;97830.38;;;-0.05;72.91
44198;BME280;30157;55.512;37.764;2023-03-04T08:48:36;97755.31;;;-0.47;73.01
44198;BME280;30157;55.512;37.764;2023-03-04T08:51:10;97842.41;;;0.24;72.90
44198;BME280;30157;55.512;37.764;2023-03-04T08:53:37;97810.81;;;-0.03;72.84
44198;BME280;30157;55.512;37.764;2023-03-04T08:56:03;97794.72;;;0.12;72.45
44198;BME280;30157;55.512;37.764;2023-03-04T08:58:29;97755.63;;;0.16;72.40
44198;BME280;30157;55.512;37.764;2023-03-04T09:00:54;97748.00;;;0.21;70.86
44198;BME280;30157;55.512;37.764;2023-03-04T09:03:20;97823.94;;;1.13;70.61
44198;BME280;30157;55.512;37.764;2023-03-04T09:05:47;97754.09;;;1.23;69.31
44198;BME280;30157;55.512;37.764;2023-03-04T09:08:14;97813.50;;;2.52;67.32
44198;BME280;30157;55.512;37.764;2023-03-04T09:10:40;97802.81;;;3.20;65.29
44198;BME280;30157;55.512;37.764;2023-03-04T09:13:06;97720.84;;;1.56;65.94
44198;BME280;30157;55.512;37.764;2023-03-04T09:15:33;97786.47;;;0.95;69.84
44198;BME280;30157;55.512;37.764;2023-03-04T09:18:02;97697.84;;;0.29;70.69
44198;BME280;30157;55.512;37.764;2023-03-04T09:20:30;97791.56;;;1.09;70.53
44198;BME280;30157;55.512;37.764;2023-03-04T09:22:57;97776.25;;;1.43;69.16
44198;BME280;30157;55.512;37.764;2023-03-04T09:25:22;97766.81;;;1.85;66.82
44198;BME280;30157;55.512;37.764;2023-03-04T09:27:48;97771.56;;;3.77;61.53
44198;BME280;30157;55.512;37.764;2023-03-04T09:30:14;97585.38;;;3.55;58.31
44198;BME280;30157;55.512;37.764;2023-03-04T09:32:40;97719.59;;;3.58;59.25
44198;BME280;30157;55.512;37.764;2023-03-04T09:35:06;97762.09;;;2.83;61.56
44198;BME280;30157;55.512;37.764;2023-03-04T09:37:34;97720.59;;;2.19;64.19
44198;BME280;30157;55.512;37.764;2023-03-04T09:40:01;97752.38;;;1.67;66.21
44198;BME280;30157;55.512;37.764;2023-03-04T09:42:35;97756.66;;;1.51;67.37
44198;BME280;30157;55.512;37.764;2023-03-04T09:45:04;97751.56;;;1.11;68.52
44198;BME280;30157;55.512;37.764;2023-03-04T09:47:33;97746.44;;;0.92;68.81
44198;BME280;30157;55.512;37.764;2023-03-04T09:50:06;97729.41;;;0.79;68.72
44198;BME280;30157;55.512;37.764;2023-03-04T10:01:58;97711.31;;;2.03;66.07
44198;BME280;30157;55.512;37.764;2023-03-04T10:04:39;97700.34;;;1.71;64.62
44198;BME280;30157;55.512;37.764;2023-03-04T10:07:16;97695.28;;;1.51;66.20
44198;BME280;30157;55.512;37.764;2023-03-04T10:09:46;97694.50;;;1.24;67.38
44198;BME280;30157;55.512;37.764;2023-03-04T10:12:18;97683.38;;;1.33;67.81
44198;BME280;30157;55.512;37.764;2023-03-04T10:14:49;97665.50;;;1.38;67.08
44198;BME280;30157;55.512;37.764;2023-03-04T10:17:23;97687.69;;;1.19;67.49
44198;BME280;30157;55.512;37.764;2023-03-04T10:19:58;97593.22;;;0.55;68.69
44198;BME280;30157;55.512;37.764;2023-03-04T10:25:22;97686.81;;;0.99;69.97
44198;BME280;30157;55.512;37.764;2023-03-04T10:27:53;97662.16;;;0.84;70.71
44198;BME280;30157;55.512;37.764;2023-03-04T10:33:16;97670.69;;;0.76;72.77
44198;BME280;30157;55.512;37.764;2023-03-04T10:35:45;97664.69;;;0.95;72.46
44198;BME280;30157;55.512;37.764;2023-03-04T10:38:14;97653.59;;;1.09;71.49
44198;BME280;30157;55.512;37.764;2023-03-04T10:40:41;97657.88;;;0.93;71.74
44198;BME280;30157;55.512;37.764;2023-03-04T10:43:18;97561.75;;;0.10;73.66
44198;BME280;30157;55.512;37.764;2023-03-04T10:45:45;97639.16;;;0.43;75.58
44198;BME280;30157;55.512;37.764;2023-03-04T10:48:25;97644.28;;;0.54;75.56
44198;BME280;30157;55.512;37.764;2023-03-04T10:50:52;97611.94;;;0.76;74.70
44198;BME280;30157;55.512;37.764;2023-03-04T10:53:27;97521.75;;;0.33;73.90
44198;BME280;30157;55.512;37.764;2023-03-04T10:55:54;97601.69;;;0.97;73.80
44198;BME280;30157;55.512;37.764;2023-03-04T10:58:20;97514.06;;;0.63;73.67
44198;BME280;30157;55.512;37.764;2023-03-04T11:01:02;97370.47;;;-0.37;74.30
44198;BME280;30157;55.512;37.764;2023-03-04T11:03:31;97592.38;;;0.64;75.47
44198;BME280;30157;55.512;37.764;2023-03-04T11:06:11;97614.47;;;0.79;75.55
44198;BME280;30157;55.512;37.764;2023-03-04T11:08:40;97617.91;;;0.50;76.35
44198;BME280;30157;55.512;37.764;2023-03-04T11:11:41;97605.13;;;0.45;76.05
44198;BME280;30157;55.512;37.764;2023-03-04T11:14:24;97242.94;;;-1.94;76.93
44198;BME280;30157;55.512;37.764;2023-03-04T11:17:00;97596.56;;;-0.03;78.74
44198;BME280;30157;55.512;37.764;2023-03-04T11:19:32;97588.91;;;-0.12;79.50
44198;BME280;30157;55.512;37.764;2023-03-04T11:22:00;97620.38;;;-0.06;80.41
44198;BME280;30157;55.512;37.764;2023-03-04T11:24:27;97593.19;;;-0.04;80.10
44198;BME280;30157;55.512;37.764;2023-03-04T11:27:14;97585.47;;;-0.30;82.11
44198;BME280;30157;55.512;37.764;2023-03-04T11:29:50;97554.72;;;-0.73;83.03
44198;BME280;30157;55.512;37.764;2023-03-04T11:32:36;97578.63;;;-0.48;83.56
44198;BME280;30157;55.512;37.764;2023-03-04T11:38:09;97585.50;;;-0.24;83.18
44198;BME280;30157;55.512;37.764;2023-03-04T11:40:44;97451.09;;;-0.88;83.08
44198;BME280;30157;55.512;37.764;2023-03-04T11:43:16;97554.06;;;-0.23;83.46
44198;BME280;30157;55.512;37.764;2023-03-04T11:48:31;97576.97;;;-0.29;84.00
44198;BME280;30157;55.512;37.764;2023-03-04T11:54:25;97556.53;;;-0.46;86.14
44198;BME280;30157;55.512;37.764;2023-03-04T11:57:08;97464.59;;;-1.11;87.34
44198;BME280;30157;55.512;37.764;2023-03-04T12:02:16;97438.31;;;-1.10;87.43
44198;BME280;30157;55.512;37.764;2023-03-04T12:21:42;97497.09;;;-0.37;89.18
44198;BME280;30157;55.512;37.764;2023-03-04T12:29:55;97486.88;;;-0.45;90.12
44198;BME280;30157;55.512;37.764;2023-03-04T12:35:36;97476.69;;;-0.49;89.46
44198;BME280;30157;55.512;37.764;2023-03-04T12:38:16;97445.19;;;-0.70;90.12
44198;BME280;30157;55.512;37.764;2023-03-04T12:40:53;97470.72;;;-0.50;90.16
44198;BME280;30157;55.512;37.764;2023-03-04T12:46:30;97457.09;;;-0.69;90.76
44198;BME280;30157;55.512;37.764;2023-03-04T12:51:35;97443.50;;;-0.71;90.47
44198;BME280;30157;55.512;37.764;2023-03-04T12:56:49;97447.81;;;-0.48;90.88
44198;BME280;30157;55.512;37.764;2023-03-04T12:59:19;97390.84;;;-0.77;91.53
44198;BME280;30157;55.512;37.764;2023-03-04T13:10:36;97390.84;;;-0.46;88.56
44198;BME280;30157;55.512;37.764;2023-03-04T13:13:02;97410.41;;;-0.32;89.28
44198;BME280;30157;55.512;37.764;2023-03-04T13:15:33;97414.66;;;-0.31;89.31
44198;BME280;30157;55.512;37.764;2023-03-04T13:18:35;97418.06;;;-0.36;89.46
44198;BME280;30157;55.512;37.764;2023-03-04T13:21:23;97412.09;;;-0.50;90.13
44198;BME280;30157;55.512;37.764;2023-03-04T13:23:50;97373.84;;;-0.84;90.51
44198;BME280;30157;55.512;37.764;2023-03-04T13:28:53;97407.00;;;-0.61;90.75
44198;BME280;30157;55.512;37.764;2023-03-04T13:31:24;97351.75;;;-0.94;90.70
44198;BME280;30157;55.512;37.764;2023-03-04T13:33:54;97332.25;;;-0.95;90.25
44198;BME280;30157;55.512;37.764;2023-03-04T13:39:03;97379.81;;;-0.45;90.30
44198;BME280;30157;55.512;37.764;2023-03-04T13:41:47;97359.44;;;-0.60;89.84
44198;BME280;30157;55.512;37.764;2023-03-04T13:47:16;97349.25;;;-0.79;90.69
44198;BME280;30157;55.512;37.764;2023-03-04T13:49:43;97321.19;;;-0.94;91.17
44198;BME280;30157;55.512;37.764;2023-03-04T13:52:40;97351.78;;;-0.68;90.99
44198;BME280;30157;55.512;37.764;2023-03-04T13:55:37;97355.19;;;-0.64;91.48
44198;BME280;30157;55.512;37.764;2023-03-04T13:58:16;97313.56;;;-0.94;91.39
44198;BME280;30157;55.512;37.764;2023-03-04T14:00:47;97255.81;;;-1.43;92.31
44198;BME280;30157;55.512;37.764;2023-03-04T14:03:20;97331.38;;;-0.96;92.44
44198;BME280;30157;55.512;37.764;2023-03-04T14:05:46;97346.69;;;-0.85;92.51
44198;BME280;30157;55.512;37.764;2023-03-04T14:08:24;97238.00;;;-1.39;92.75
44198;BME280;30157;55.512;37.764;2023-03-04T14:10:54;97327.16;;;-0.83;93.19
44198;BME280;30157;55.512;37.764;2023-03-04T14:13:20;97303.38;;;-0.96;93.07
44198;BME280;30157;55.512;37.764;2023-03-04T14:15:54;97224.44;;;-1.44;92.74
44198;BME280;30157;55.512;37.764;2023-03-04T14:18:21;97274.50;;;-1.13;93.31
44198;BME280;30157;55.512;37.764;2023-03-04T14:20:49;97305.94;;;-0.88;93.06
44198;BME280;30157;55.512;37.764;2023-03-04T14:23:34;97291.50;;;-1.03;93.38